Time;durP1;ratioP1;P1;durP2;ratioP2;P2;SDS_P1;SDS_P2;PMS_P1;PMS_P2;Temp;Humidity;BMP_temperature;BMP_pressure;BME280_temperature;BME280_humidity;BME280_pressure;Samples;Min_cycle;Max_cycle;Signal;HPM_P1;HPM_P2
2021/12/10 00:02:11;;;;;;;5.22;1.83;;;18.50;58.10;;;;;;5054888;28;20067;-68
2021/12/10 00:04:39;;;;;;;5.20;1.90;;;18.50;58.00;;;;;;5053495;28;20052;-68
2021/12/10 00:07:20;;;;;;;5.80;1.92;;;18.50;58.00;;;;;;5054317;28;20045;-68
2021/12/10 00:09:51;;;;;;;5.95;1.83;;;18.50;58.10;;;;;;5054652;28;20040;-68
2021/12/10 00:12:20;;;;;;;5.28;2.03;;;18.50;58.10;;;;;;5054505;28;20021;-68
2021/12/10 00:14:45;;;;;;;6.95;1.75;;;18.50;58.10;;;;;;5053523;28;20021;-68
2021/12/10 00:17:12;;;;;;;6.18;1.80;;;18.50;58.10;;;;;;5054528;28;20068;-68
2021/12/10 00:19:47;;;;;;;4.35;1.70;;;18.50;58.10;;;;;;5054889;28;20025;-68
2021/12/10 00:22:39;;;;;;;7.38;2.20;;;18.50;58.10;;;;;;5054372;28;20021;-68
2021/12/10 00:25:07;;;;;;;6.95;2.22;;;18.50;58.20;;;;;;5039080;28;20041;-68
2021/12/10 00:27:33;;;;;;;4.22;1.80;;;18.50;58.20;;;;;;5054157;28;20105;-68
2021/12/10 00:30:05;;;;;;;4.10;1.45;;;18.50;58.20;;;;;;5036257;28;20136;-68
2021/12/10 00:32:35;;;;;;;5.05;1.60;;;18.50;58.20;;;;;;5053038;28;20025;-68
2021/12/10 00:35:03;;;;;;;5.57;1.67;;;18.50;58.20;;;;;;5054163;28;20025;-68
2021/12/10 00:37:29;;;;;;;3.90;1.83;;;18.50;58.10;;;;;;5052657;28;20056;-68
2021/12/10 00:39:56;;;;;;;3.95;1.73;;;18.50;58.10;;;;;;5053063;28;20570;-68
2021/12/10 00:42:27;;;;;;;6.22;1.70;;;18.50;58.10;;;;;;5052835;28;20159;-68
2021/12/10 00:44:53;;;;;;;3.75;1.90;;;18.50;58.10;;;;;;5036793;28;20066;-69
2021/12/10 00:47:19;;;;;;;8.13;2.28;;;18.50;58.10;;;;;;5053922;28;20125;-69
2021/12/10 00:49:45;;;;;;;4.30;1.50;;;18.50;58.20;;;;;;5053824;28;20112;-68
2021/12/10 00:52:11;;;;;;;3.42;1.27;;;18.50;58.10;;;;;;5053627;28;20067;-69
2021/12/10 00:54:37;;;;;;;5.13;1.83;;;18.50;58.20;;;;;;5053448;28;20096;-68
2021/12/10 00:57:03;;;;;;;4.90;1.38;;;18.50;58.20;;;;;;5052804;28;20533;-68
2021/12/10 00:59:29;;;;;;;4.53;1.30;;;18.50;58.10;;;;;;5053611;28;20112;-68
2021/12/10 01:01:55;;;;;;;4.45;1.35;;;18.50;58.10;;;;;;5053592;28;20147;-68
2021/12/10 01:04:31;;;;;;;3.15;1.75;;;18.50;58.10;;;;;;5052467;28;20059;-68
2021/12/10 01:06:58;;;;;;;4.45;1.75;;;18.50;58.20;;;;;;5053440;28;20078;-68
2021/12/10 01:09:37;;;;;;;5.75;1.60;;;18.50;58.10;;;;;;5052229;28;20020;-69
2021/12/10 01:12:09;;;;;;;4.95;1.90;;;18.50;58.10;;;;;;5037009;28;20025;-69
2021/12/10 01:25:50;;;;;;;4.05;1.58;;;18.40;58.10;;;;;;5052327;28;20035;-69
2021/12/10 01:28:16;;;;;;;3.63;1.42;;;18.40;58.20;;;;;;5037220;28;20119;-69
2021/12/10 01:30:42;;;;;;;5.78;1.55;;;18.40;58.20;;;;;;5053142;28;20104;-68
2021/12/10 01:33:10;;;;;;;5.57;1.88;;;18.40;58.20;;;;;;5053152;28;20060;-69
2021/12/10 01:35:41;;;;;;;4.53;1.58;;;18.40;58.10;;;;;;5035526;28;20013;-68
2021/12/10 01:38:08;;;;;;;6.75;1.80;;;18.40;58.10;;;;;;5053252;28;20029;-68
2021/12/10 01:40:35;;;;;;;4.30;1.65;;;18.40;58.10;;;;;;5051001;28;20017;-68
2021/12/10 01:43:06;;;;;;;6.38;2.22;;;18.40;58.10;;;;;;5051802;28;20061;-68
2021/12/10 01:45:46;;;;;;;3.58;1.48;;;18.50;58.10;;;;;;5052832;28;20025;-68
2021/12/10 01:48:19;;;;;;;3.25;1.30;;;18.40;58.10;;;;;;5052877;28;20405;-68
2021/12/10 01:50:44;;;;;;;3.38;1.48;;;18.40;58.10;;;;;;5035401;28;20117;-69
2021/12/10 01:53:12;;;;;;;5.63;1.92;;;18.40;58.10;;;;;;5052646;28;20102;-69
2021/12/10 01:55:40;;;;;;;4.15;1.67;;;18.40;58.10;;;;;;5035166;28;20021;-69
2021/12/10 01:58:06;;;;;;;2.95;1.30;;;18.40;58.10;;;;;;5052769;28;20028;-69
2021/12/10 02:00:34;;;;;;;4.07;1.50;;;18.40;58.10;;;;;;5051398;28;20474;-68
2021/12/10 02:03:00;;;;;;;4.22;1.55;;;18.40;58.10;;;;;;5034485;28;20025;-68
2021/12/10 02:05:25;;;;;;;3.28;1.52;;;18.40;58.10;;;;;;5051397;28;20036;-68
2021/12/10 02:07:53;;;;;;;6.38;1.67;;;18.40;59.10;;;;;;5052366;28;20021;-69
2021/12/10 02:10:19;;;;;;;4.18;1.23;;;18.40;58.10;;;;;;5051293;28;20059;-68
2021/12/10 02:12:46;;;;;;;4.85;1.60;;;18.40;58.10;;;;;;5052526;28;20025;-69
2021/12/10 02:15:12;;;;;;;2.70;1.23;;;18.40;58.10;;;;;;5052562;28;20469;-68
2021/12/10 02:17:41;;;;;;;7.45;1.52;;;18.40;58.10;;;;;;5034269;28;20096;-69
2021/12/10 02:20:14;;;;;;;5.75;1.88;;;18.40;58.00;;;;;;5052406;28;20375;-69
2021/12/10 02:22:39;;;;;;;2.70;1.40;;;18.40;58.00;;;;;;5050807;28;20481;-69
2021/12/10 02:25:05;;;;;;;5.40;1.40;;;18.40;58.10;;;;;;5052276;28;20108;-69
2021/12/10 02:27:32;;;;;;;6.32;1.40;;;18.40;58.10;;;;;;5052211;28;20060;-69
2021/12/10 02:29:57;;;;;;;3.33;1.25;;;18.40;58.10;;;;;;5052306;28;20116;-69
2021/12/10 02:32:24;;;;;;;4.10;1.50;;;18.40;58.10;;;;;;5050739;28;20100;-69
2021/12/10 02:34:52;;;;;;;3.83;1.50;;;18.40;58.10;;;;;;5052088;28;20025;-69
2021/12/10 02:37:18;;;;;;;3.38;1.30;;;18.40;58.10;;;;;;5052324;28;20023;-69
2021/12/10 02:39:44;;;;;;;3.17;1.20;;;18.40;58.10;;;;;;5052058;28;20108;-69
2021/12/10 02:42:09;;;;;;;3.42;1.67;;;18.30;58.10;;;;;;5052209;28;20063;-69
2021/12/10 02:44:35;;;;;;;2.90;1.42;;;18.40;58.10;;;;;;5052242;28;20025;-69
2021/12/10 02:47:01;;;;;;;3.47;1.42;;;18.40;58.10;;;;;;5051885;28;20029;-69
2021/12/10 02:49:27;;;;;;;3.13;1.20;;;18.40;58.10;;;;;;5052043;28;20032;-69
2021/12/10 02:51:53;;;;;;;3.58;1.35;;;18.40;58.10;;;;;;5052588;28;20056;-69
2021/12/10 02:54:23;;;;;;;2.88;0.95;;;18.40;58.10;;;;;;5054780;28;20057;-69
2021/12/10 02:56:50;;;;;;;5.75;1.73;;;18.40;58.10;;;;;;5056577;28;20012;-69
2021/12/10 02:59:16;;;;;;;2.38;1.30;;;18.40;58.10;;;;;;5055041;28;20029;-69
2021/12/10 03:01:46;;;;;;;3.03;1.10;;;18.40;58.10;;;;;;5037753;28;20031;-69
2021/12/10 03:04:13;;;;;;;4.03;1.45;;;18.40;58.10;;;;;;5054693;28;20440;-69
2021/12/10 03:06:58;;;;;;;3.90;1.30;;;18.40;58.10;;;;;;5055723;28;20537;-69
2021/12/10 03:09:24;;;;;;;3.10;1.30;;;18.40;58.00;;;;;;5054632;28;20049;-69
2021/12/10 03:11:50;;;;;;;2.72;1.48;;;18.40;58.10;;;;;;5054474;28;20028;-69
2021/12/10 03:14:21;;;;;;;3.60;1.60;;;18.40;58.10;;;;;;5055856;28;20021;-69
2021/12/10 03:16:48;;;;;;;2.90;1.30;;;18.40;58.00;;;;;;5055533;28;20021;-69
2021/12/10 03:19:14;;;;;;;3.33;1.27;;;18.40;58.10;;;;;;5055645;28;20496;-69
2021/12/10 03:21:44;;;;;;;3.05;1.27;;;18.40;58.10;;;;;;5055517;28;20060;-69
2021/12/10 03:24:14;;;;;;;2.75;1.23;;;18.30;58.00;;;;;;5055436;28;20045;-69
2021/12/10 03:26:39;;;;;;;6.00;1.60;;;18.30;58.00;;;;;;5055322;28;20422;-69
2021/12/10 03:29:05;;;;;;;3.90;1.33;;;18.30;58.10;;;;;;5055386;28;20025;-69
2021/12/10 03:31:31;;;;;;;6.15;1.70;;;18.30;58.10;;;;;;5053930;28;20092;-69
2021/12/10 03:33:57;;;;;;;5.85;1.67;;;18.30;58.00;;;;;;5054050;28;20071;-69
2021/12/10 03:36:22;;;;;;;3.92;1.15;;;18.30;58.10;;;;;;5037636;28;20466;-69
2021/12/10 03:38:48;;;;;;;2.90;1.17;;;18.30;58.10;;;;;;5054197;28;20052;-69
2021/12/10 03:41:14;;;;;;;3.35;1.17;;;18.30;58.10;;;;;;5053968;28;20021;-69
2021/12/10 03:43:41;;;;;;;3.58;1.30;;;18.30;58.10;;;;;;5054012;28;20043;-69
2021/12/10 03:46:06;;;;;;;3.45;1.27;;;18.30;58.10;;;;;;5053739;28;20024;-69
2021/12/10 03:48:35;;;;;;;8.52;1.83;;;18.30;58.10;;;;;;5053759;28;20039;-69
2021/12/10 03:51:02;;;;;;;3.05;1.10;;;18.30;58.10;;;;;;5053704;28;20116;-69
2021/12/10 03:53:27;;;;;;;2.42;0.90;;;18.30;58.10;;;;;;5055032;28;20023;-69
2021/12/10 03:55:58;;;;;;;1.48;0.90;;;18.30;58.10;;;;;;5054707;28;20025;-69
2021/12/10 04:00:59;;;;;;;3.15;1.10;;;18.40;58.10;;;;;;4399139;23;20038;-67
2021/12/10 04:03:27;;;;;;;3.00;0.98;;;18.40;58.20;;;;;;4980551;28;20046;-68
2021/12/10 04:05:53;;;;;;;4.00;1.30;;;18.40;58.20;;;;;;4978502;28;20026;-68
2021/12/10 04:08:18;;;;;;;2.33;1.05;;;18.40;58.20;;;;;;4978166;28;20018;-68
2021/12/10 04:10:44;;;;;;;2.53;0.95;;;18.40;58.20;;;;;;4978295;28;20501;-68
2021/12/10 04:13:10;;;;;;;4.07;1.35;;;18.40;58.20;;;;;;4978147;28;20045;-68
2021/12/10 04:15:38;;;;;;;3.05;1.30;;;18.40;58.20;;;;;;4995158;28;20023;-68
2021/12/10 04:18:04;;;;;;;2.53;1.10;;;18.30;58.10;;;;;;4995472;28;20027;-68
2021/12/10 04:20:29;;;;;;;1.67;0.82;;;18.40;58.20;;;;;;4978120;28;20080;-68
2021/12/10 04:22:55;;;;;;;2.15;0.88;;;18.40;58.20;;;;;;4978002;28;20410;-68
2021/12/10 04:25:24;;;;;;;3.35;1.13;;;18.40;58.20;;;;;;4977947;28;20568;-68
2021/12/10 04:27:52;;;;;;;3.15;0.98;;;18.40;58.20;;;;;;4995186;28;20058;-68
2021/12/10 04:30:17;;;;;;;3.55;1.27;;;18.40;58.20;;;;;;4994943;28;20082;-68
2021/12/10 04:32:43;;;;;;;2.25;0.90;;;18.30;58.20;;;;;;4961786;28;20034;-68
2021/12/10 04:35:09;;;;;;;2.08;1.10;;;18.40;58.30;;;;;;4977563;28;20033;-68
2021/12/10 04:37:35;;;;;;;2.45;1.25;;;18.30;58.20;;;;;;4977756;28;20399;-68
2021/12/10 04:40:03;;;;;;;3.03;1.00;;;18.30;58.20;;;;;;4977710;28;20033;-68
2021/12/10 04:42:29;;;;;;;2.22;1.05;;;18.30;58.30;;;;;;4977970;28;20106;-68
2021/12/10 04:44:56;;;;;;;2.88;0.90;;;18.30;58.30;;;;;;4994597;28;20027;-67
2021/12/10 04:47:22;;;;;;;2.35;1.10;;;18.30;58.20;;;;;;4977615;28;20549;-68
2021/12/10 04:49:47;;;;;;;2.80;1.13;;;18.40;58.30;;;;;;4977536;28;20031;-68
2021/12/10 04:52:13;;;;;;;2.92;0.90;;;18.30;58.30;;;;;;4977439;28;20032;-68
2021/12/10 04:54:39;;;;;;;2.67;0.98;;;18.30;58.20;;;;;;4961213;28;20069;-68
2021/12/10 04:57:04;;;;;;;2.97;1.05;;;18.30;58.30;;;;;;4961138;28;20037;-68
2021/12/10 04:59:31;;;;;;;2.22;1.00;;;18.30;58.20;;;;;;4994368;28;20019;-68
2021/12/10 05:01:58;;;;;;;2.25;1.02;;;18.30;58.20;;;;;;4977035;28;20057;-68
2021/12/10 05:04:24;;;;;;;3.17;1.20;;;18.30;58.30;;;;;;4994417;28;20023;-68
2021/12/10 05:06:50;;;;;;;2.75;0.85;;;18.30;58.30;;;;;;4993338;28;20026;-68
2021/12/10 05:09:17;;;;;;;3.10;1.10;;;18.30;58.30;;;;;;4977057;28;20090;-68
2021/12/10 05:11:43;;;;;;;1.95;1.10;;;18.30;58.30;;;;;;4994427;28;20026;-67
2021/12/10 05:14:09;;;;;;;3.58;1.52;;;18.30;58.30;;;;;;4992687;28;20026;-68
2021/12/10 05:16:37;;;;;;;2.05;0.90;;;18.30;58.20;;;;;;4993543;28;20483;-68
2021/12/10 05:19:05;;;;;;;3.30;1.05;;;18.30;58.30;;;;;;4994190;28;20029;-68
2021/12/10 05:21:32;;;;;;;2.30;1.13;;;18.30;58.30;;;;;;4977179;28;20030;-68
2021/12/10 05:23:58;;;;;;;2.13;0.95;;;18.30;58.20;;;;;;4993250;28;20562;-67
2021/12/10 05:26:24;;;;;;;3.33;1.05;;;18.30;58.20;;;;;;4992918;28;20030;-68
2021/12/10 05:28:50;;;;;;;3.08;1.00;;;18.30;58.30;;;;;;4992746;28;20597;-68
2021/12/10 05:31:15;;;;;;;2.50;1.00;;;18.30;58.30;;;;;;4993925;28;20034;-68
2021/12/10 05:33:41;;;;;;;2.40;0.90;;;18.30;58.20;;;;;;4992955;28;20018;-68
2021/12/10 05:36:07;;;;;;;2.45;1.00;;;18.30;58.30;;;;;;4993946;28;20023;-68
2021/12/10 05:38:33;;;;;;;4.60;1.08;;;18.30;58.30;;;;;;4976810;28;20112;-68
2021/12/10 05:40:59;;;;;;;3.60;1.13;;;18.30;58.30;;;;;;4993845;28;20022;-68
2021/12/10 05:43:25;;;;;;;2.38;0.93;;;18.30;58.20;;;;;;4992382;28;20053;-67
2021/12/10 05:45:51;;;;;;;3.30;1.15;;;18.30;58.30;;;;;;4976531;28;20023;-68
2021/12/10 05:48:17;;;;;;;1.75;0.70;;;18.30;58.30;;;;;;4976292;28;20026;-68
2021/12/10 05:50:42;;;;;;;2.17;0.90;;;18.30;58.20;;;;;;4976501;28;20026;-68
2021/12/10 05:53:08;;;;;;;3.22;1.20;;;18.30;58.30;;;;;;4993737;28;20411;-68
2021/12/10 05:55:34;;;;;;;2.00;1.17;;;18.30;58.30;;;;;;4976392;28;20038;-68
2021/12/10 05:58:00;;;;;;;2.38;0.80;;;18.30;58.30;;;;;;4976137;28;20026;-68
2021/12/10 06:00:33;;;;;;;2.80;1.13;;;18.30;58.30;;;;;;4993475;28;20598;-68
2021/12/10 06:02:59;;;;;;;1.77;0.73;;;18.30;58.30;;;;;;4976623;28;20125;-68
2021/12/10 06:05:25;;;;;;;2.60;0.95;;;18.30;58.30;;;;;;4976251;28;20463;-68
2021/12/10 06:07:50;;;;;;;2.42;0.98;;;18.30;58.30;;;;;;4993396;28;20084;-68
2021/12/10 06:10:17;;;;;;;1.58;0.70;;;18.30;58.20;;;;;;4976193;28;20068;-68
2021/12/10 06:12:43;;;;;;;1.80;1.15;;;18.30;58.30;;;;;;4989395;28;20041;-68
2021/12/10 06:15:10;;;;;;;1.55;0.73;;;18.30;58.20;;;;;;4971272;28;20022;-68
2021/12/10 06:17:35;;;;;;;2.10;0.82;;;18.30;58.30;;;;;;4983369;28;20142;-68
2021/12/10 06:20:04;;;;;;;2.30;1.00;;;18.30;58.30;;;;;;4985039;28;20479;-68
2021/12/10 06:22:30;;;;;;;2.63;1.20;;;18.30;58.20;;;;;;4966161;28;20438;-68
2021/12/10 06:24:55;;;;;;;1.58;0.70;;;18.30;58.30;;;;;;4980736;28;20034;-68
2021/12/10 06:27:21;;;;;;;2.15;1.10;;;18.30;58.30;;;;;;4983079;28;20032;-68
2021/12/10 06:29:47;;;;;;;1.35;0.80;;;18.30;58.30;;;;;;4959881;28;20068;-68
2021/12/10 06:32:12;;;;;;;2.13;0.70;;;18.30;58.30;;;;;;4993403;28;20034;-68
2021/12/10 06:34:38;;;;;;;2.28;0.80;;;18.30;58.40;;;;;;4992625;28;20022;-68
2021/12/10 06:37:04;;;;;;;1.65;0.65;;;18.30;58.40;;;;;;4975488;28;20105;-68
2021/12/10 06:39:30;;;;;;;3.20;1.15;;;18.40;58.40;;;;;;4991594;28;20023;-68
2021/12/10 06:41:55;;;;;;;1.30;0.73;;;18.40;58.40;;;;;;4968718;28;20026;-68
2021/12/10 06:44:22;;;;;;;0.57;0.35;;;18.40;58.30;;;;;;4987936;28;20061;-68
2021/12/10 06:46:47;;;;;;;1.40;0.70;;;18.40;58.30;;;;;;4981852;28;20121;-68
2021/12/10 06:49:14;;;;;;;2.58;0.50;;;18.40;58.30;;;;;;4974283;28;20558;-68
2021/12/10 06:51:39;;;;;;;2.70;0.82;;;18.40;58.30;;;;;;4974429;28;20030;-68
2021/12/10 06:54:05;;;;;;;0.90;0.47;;;18.40;58.30;;;;;;4990056;28;20019;-68
2021/12/10 06:56:33;;;;;;;1.38;0.73;;;18.40;58.30;;;;;;4966522;28;20057;-68
2021/12/10 06:58:59;;;;;;;0.90;0.60;;;18.40;58.20;;;;;;4970394;28;20023;-68
2021/12/10 07:01:28;;;;;;;0.88;0.50;;;18.40;58.30;;;;;;4973483;28;20504;-68
2021/12/10 07:03:54;;;;;;;1.10;0.82;;;18.50;58.30;;;;;;4954290;28;20030;-68
2021/12/10 07:06:20;;;;;;;1.33;0.70;;;18.50;58.30;;;;;;4947072;29;20396;-68
2021/12/10 07:08:46;;;;;;;1.27;0.63;;;18.50;58.30;;;;;;4951410;29;20034;-68
2021/12/10 07:11:14;;;;;;;1.35;0.60;;;18.50;58.20;;;;;;4951647;29;20019;-68
2021/12/10 07:13:41;;;;;;;0.80;0.50;;;18.50;58.20;;;;;;4951986;29;20396;-68
2021/12/10 07:16:07;;;;;;;1.58;0.65;;;18.50;58.20;;;;;;4943334;29;20024;-68
2021/12/10 07:18:33;;;;;;;2.88;0.80;;;18.50;58.20;;;;;;4949407;29;20019;-68
2021/12/10 07:20:58;;;;;;;2.75;0.80;;;18.50;58.30;;;;;;4948726;29;20481;-68
2021/12/10 07:23:24;;;;;;;2.00;0.60;;;18.50;58.20;;;;;;4950725;29;20078;-67
2021/12/10 07:25:50;;;;;;;1.85;0.90;;;18.50;58.20;;;;;;4943259;29;21033;-68
2021/12/10 07:28:16;;;;;;;6.55;1.50;;;18.50;58.30;;;;;;4938876;29;20023;-67
2021/12/10 07:30:42;;;;;;;8.45;1.77;;;18.50;58.40;;;;;;4933328;29;20031;-67
2021/12/10 07:33:08;;;;;;;7.53;1.90;;;18.60;58.40;;;;;;4933042;29;20039;-67
2021/12/10 07:35:34;;;;;;;7.93;2.67;;;18.60;58.40;;;;;;4933392;29;20024;-67
2021/12/10 07:38:00;;;;;;;7.07;2.35;;;18.60;59.40;;;;;;4933447;29;20024;-67
2021/12/10 07:40:27;;;;;;;7.40;2.22;;;18.60;58.40;;;;;;4936870;29;20039;-67
2021/12/10 07:42:52;;;;;;;7.93;2.13;;;18.70;58.50;;;;;;4937761;29;20027;-67
2021/12/10 07:45:18;;;;;;;6.20;1.65;;;18.60;58.50;;;;;;4936893;29;20032;-67
2021/12/10 07:47:45;;;;;;;9.27;2.10;;;18.70;58.60;;;;;;4936643;29;20024;-67
2021/12/10 07:50:13;;;;;;;7.78;1.60;;;18.70;58.60;;;;;;4936845;29;20496;-67
2021/12/10 07:52:40;;;;;;;6.10;1.63;;;18.70;58.60;;;;;;4953414;29;20031;-67
2021/12/10 07:55:08;;;;;;;8.63;1.95;;;18.70;58.60;;;;;;4955663;29;20361;-67
2021/12/10 07:57:34;;;;;;;6.00;1.63;;;18.70;58.60;;;;;;4956714;29;20066;-67
2021/12/10 07:59:59;;;;;;;3.45;1.60;;;18.70;58.60;;;;;;4955763;29;20480;-67
2021/12/10 08:02:25;;;;;;;6.38;1.67;;;18.70;58.60;;;;;;4955433;28;20067;-68
2021/12/10 08:04:51;;;;;;;4.78;1.52;;;18.70;58.60;;;;;;4956826;28;20066;-67
2021/12/10 08:07:17;;;;;;;6.45;1.73;;;18.70;58.60;;;;;;4955278;29;20034;-67
2021/12/10 08:09:43;;;;;;;6.80;1.30;;;18.60;58.60;;;;;;4971455;28;20046;-67
2021/12/10 08:12:08;;;;;;;4.18;1.42;;;18.70;58.60;;;;;;4955551;29;20019;-67
2021/12/10 08:14:34;;;;;;;3.70;1.42;;;18.70;58.60;;;;;;4956755;29;20023;-67
2021/12/10 08:17:00;;;;;;;3.78;1.45;;;18.70;58.60;;;;;;4956575;29;20066;-67
2021/12/10 08:19:25;;;;;;;4.47;1.48;;;18.70;58.60;;;;;;4955527;29;20037;-67
2021/12/10 08:21:51;;;;;;;3.75;1.20;;;18.70;58.50;;;;;;4954898;29;20030;-67
2021/12/10 08:24:17;;;;;;;5.75;1.70;;;18.70;58.60;;;;;;4955357;29;20023;-68
2021/12/10 08:26:43;;;;;;;6.13;1.75;;;18.60;58.50;;;;;;4955173;29;20085;-67
2021/12/10 08:29:09;;;;;;;6.35;1.95;;;18.70;58.60;;;;;;4956217;29;20508;-67
2021/12/10 08:31:35;;;;;;;4.32;1.35;;;18.70;58.60;;;;;;4955249;29;20440;-68
2021/12/10 08:34:00;;;;;;;4.32;1.20;;;18.70;58.60;;;;;;4956319;29;20103;-67
2021/12/10 08:36:28;;;;;;;3.53;1.13;;;18.70;58.50;;;;;;4956499;29;20103;-67
2021/12/10 08:38:53;;;;;;;4.57;1.15;;;18.70;58.60;;;;;;4955029;29;20460;-67
2021/12/10 08:41:25;;;;;;;2.85;1.20;;;18.60;58.50;;;;;;4956400;29;20099;-67
2021/12/10 08:43:51;;;;;;;2.38;1.25;;;18.70;58.50;;;;;;4954925;29;20023;-68
2021/12/10 08:46:17;;;;;;;3.28;1.13;;;18.60;58.50;;;;;;4954814;29;20431;-67
2021/12/10 08:48:43;;;;;;;4.32;1.52;;;18.60;58.40;;;;;;4955968;28;20043;-67
2021/12/10 08:51:17;;;;;;;3.88;1.33;;;18.60;58.40;;;;;;4955616;29;20027;-67
2021/12/10 08:53:42;;;;;;;3.47;1.33;;;18.70;58.50;;;;;;4954549;29;20042;-67
2021/12/10 08:56:08;;;;;;;3.45;1.20;;;18.70;58.50;;;;;;4956055;28;20023;-67
2021/12/10 08:58:34;;;;;;;3.63;1.20;;;18.60;58.40;;;;;;4955887;28;20441;-67
2021/12/10 09:01:05;;;;;;;4.72;1.38;;;18.60;58.40;;;;;;4936862;29;20044;-67
2021/12/10 09:03:32;;;;;;;3.17;1.10;;;18.60;58.40;;;;;;4935575;29;20016;-67
2021/12/10 09:05:59;;;;;;;2.65;1.25;;;18.60;58.40;;;;;;4935265;29;20016;-67
2021/12/10 09:08:24;;;;;;;2.83;1.00;;;18.60;58.40;;;;;;4935412;29;20027;-67
2021/12/10 09:10:50;;;;;;;4.57;1.10;;;18.60;58.40;;;;;;4936424;29;20020;-67
2021/12/10 09:13:20;;;;;;;3.42;1.23;;;18.60;58.40;;;;;;4936518;29;20397;-67
2021/12/10 09:15:51;;;;;;;3.78;1.17;;;18.60;58.40;;;;;;4935224;29;20103;-67
2021/12/10 09:18:16;;;;;;;2.78;0.98;;;18.60;58.30;;;;;;4935071;29;20023;-67
2021/12/10 09:20:44;;;;;;;2.65;1.20;;;18.60;58.40;;;;;;4936137;29;20020;-67
2021/12/10 09:23:13;;;;;;;3.15;1.33;;;18.60;58.30;;;;;;4934938;29;20089;-67
2021/12/10 09:25:39;;;;;;;2.53;0.90;;;18.60;58.30;;;;;;4935110;29;20020;-68
2021/12/10 09:28:05;;;;;;;3.13;1.05;;;18.60;58.30;;;;;;4936236;29;20036;-67
2021/12/10 09:30:31;;;;;;;3.70;1.27;;;18.60;58.30;;;;;;4934966;29;20516;-67
2021/12/10 09:32:57;;;;;;;2.92;1.08;;;18.60;58.30;;;;;;4934761;29;20039;-68
2021/12/10 09:35:23;;;;;;;2.92;1.17;;;18.60;58.20;;;;;;4934697;29;20015;-67
2021/12/10 09:37:48;;;;;;;1.90;1.02;;;18.60;58.20;;;;;;4935879;29;20055;-67
2021/12/10 09:40:17;;;;;;;4.38;1.10;;;18.60;58.10;;;;;;4935958;29;20489;-67
2021/12/10 09:42:44;;;;;;;3.08;1.10;;;18.60;58.20;;;;;;4935970;29;20492;-67
2021/12/10 09:45:10;;;;;;;1.38;0.65;;;18.60;58.10;;;;;;4934747;29;20028;-67
2021/12/10 09:47:36;;;;;;;3.08;0.90;;;18.60;58.20;;;;;;4934688;29;20485;-67
2021/12/10 09:50:02;;;;;;;2.70;0.98;;;18.60;58.10;;;;;;4935446;29;20028;-67
2021/12/10 09:52:28;;;;;;;2.53;0.85;;;18.60;58.10;;;;;;4948951;28;20030;-67
2021/12/10 09:54:54;;;;;;;2.80;0.85;;;18.60;58.10;;;;;;4972921;28;20439;-67
2021/12/10 09:57:25;;;;;;;2.00;1.00;;;18.60;58.10;;;;;;4972987;28;20022;-67
2021/12/10 09:59:53;;;;;;;2.53;0.90;;;18.60;58.10;;;;;;4964127;28;20066;-68
2021/12/10 10:02:20;;;;;;;2.20;0.98;;;18.60;58.10;;;;;;4966852;28;20055;-67
2021/12/10 10:04:49;;;;;;;2.67;0.90;;;18.60;58.00;;;;;;4973754;28;20069;-67
2021/12/10 10:07:20;;;;;;;1.95;0.95;;;18.60;58.00;;;;;;4972878;28;20034;-67
2021/12/10 10:09:48;;;;;;;1.42;0.70;;;18.60;58.00;;;;;;4972925;28;20023;-67
2021/12/10 10:12:17;;;;;;;2.10;1.00;;;18.70;58.10;;;;;;4972682;28;20046;-67
2021/12/10 10:14:43;;;;;;;1.75;1.02;;;18.60;58.00;;;;;;4974021;28;20022;-67
2021/12/10 10:17:09;;;;;;;1.90;0.90;;;18.60;58.00;;;;;;4973722;28;21272;-67
2021/12/10 10:19:35;;;;;;;2.25;0.93;;;18.60;58.00;;;;;;4972357;28;20035;-67
2021/12/10 10:22:01;;;;;;;2.80;1.00;;;18.60;57.90;;;;;;4972677;28;20034;-67
2021/12/10 10:24:28;;;;;;;1.92;0.85;;;18.60;57.90;;;;;;4973675;28;20033;-67
2021/12/10 10:27:00;;;;;;;2.05;0.90;;;18.60;57.90;;;;;;4972635;28;20053;-67
2021/12/10 10:29:28;;;;;;;2.17;1.25;;;18.60;57.90;;;;;;4973673;28;20022;-67
2021/12/10 10:31:56;;;;;;;1.65;1.00;;;18.60;57.90;;;;;;4972429;28;20023;-67
2021/12/10 10:34:22;;;;;;;2.25;0.90;;;18.60;57.80;;;;;;4972442;28;20102;-68
2021/12/10 10:36:48;;;;;;;1.40;0.73;;;18.60;57.80;;;;;;4972578;28;20110;-67
2021/12/10 10:39:16;;;;;;;1.30;0.90;;;18.60;57.80;;;;;;4972482;28;20027;-67
2021/12/10 10:41:47;;;;;;;2.38;1.10;;;18.60;57.90;;;;;;4956278;28;20407;-67
2021/12/10 10:44:13;;;;;;;0.70;0.60;;;18.60;57.80;;;;;;4972309;28;20023;-67
2021/12/10 10:46:39;;;;;;;2.30;1.05;;;18.60;57.80;;;;;;4973387;28;20037;-67
2021/12/10 10:49:04;;;;;;;2.28;1.10;;;18.60;57.80;;;;;;4972089;28;20443;-67
2021/12/10 10:51:33;;;;;;;2.38;1.10;;;18.50;57.70;;;;;;4972482;28;20033;-67
2021/12/10 10:54:00;;;;;;;1.77;0.80;;;18.60;57.70;;;;;;4954214;28;20027;-67
2021/12/10 10:56:30;;;;;;;1.70;0.85;;;18.60;57.70;;;;;;4953058;29;20496;-67
2021/12/10 10:58:58;;;;;;;2.33;0.90;;;18.60;57.60;;;;;;4953968;28;20496;-67
2021/12/10 11:01:28;;;;;;;2.13;0.85;;;18.60;57.60;;;;;;4965229;28;20051;-67
2021/12/10 11:04:13;;;;;;;1.40;0.85;;;18.60;57.60;;;;;;4952914;29;20129;-67
2021/12/10 11:06:41;;;;;;;2.97;1.00;;;18.60;57.60;;;;;;4939135;29;20042;-67
2021/12/10 11:09:14;;;;;;;1.52;0.95;;;18.60;57.60;;;;;;4953913;29;20506;-68
2021/12/10 11:11:45;;;;;;;3.67;0.82;;;18.60;57.60;;;;;;4954007;29;20392;-67
2021/12/10 11:14:30;;;;;;;1.60;0.73;;;18.50;57.60;;;;;;4956255;28;20077;-67
2021/12/10 11:17:14;;;;;;;1.42;0.70;;;18.50;57.60;;;;;;4956231;29;20030;-67
2021/12/10 11:19:41;;;;;;;1.77;1.00;;;18.60;57.50;;;;;;4956582;29;20388;-67
2021/12/10 11:22:12;;;;;;;2.35;0.98;;;18.50;57.50;;;;;;4956465;29;20130;-67
2021/12/10 11:25:09;;;;;;;3.22;0.80;;;18.50;57.50;;;;;;4957597;29;20023;-67
2021/12/10 11:27:37;;;;;;;2.15;0.80;;;18.60;57.40;;;;;;4957570;28;20023;-67
2021/12/10 11:30:03;;;;;;;3.22;0.90;;;18.50;57.50;;;;;;4956029;29;20019;-67
2021/12/10 11:32:31;;;;;;;2.35;0.90;;;18.50;57.50;;;;;;4957407;29;20464;-67
2021/12/10 11:35:08;;;;;;;2.33;0.70;;;18.50;57.50;;;;;;4957366;29;20106;-67
2021/12/10 11:37:45;;;;;;;3.00;0.80;;;18.50;57.30;;;;;;4957458;29;20059;-67
2021/12/10 11:40:27;;;;;;;2.38;0.77;;;18.60;57.40;;;;;;4956215;29;20114;-67
2021/12/10 11:43:01;;;;;;;2.17;0.80;;;18.50;57.20;;;;;;4957302;29;20031;-67
2021/12/10 11:45:41;;;;;;;1.40;0.57;;;18.50;57.30;;;;;;4955871;29;20500;-67
2021/12/10 11:48:11;;;;;;;2.28;1.00;;;18.50;57.40;;;;;;4956085;29;20031;-67
2021/12/10 11:50:41;;;;;;;1.88;0.73;;;18.50;57.30;;;;;;4956123;29;20031;-67
2021/12/10 11:53:16;;;;;;;1.17;0.70;;;18.50;57.30;;;;;;4956781;29;20603;-67
2021/12/10 11:56:00;;;;;;;2.05;0.88;;;18.50;57.30;;;;;;4955896;29;20376;-67
2021/12/10 11:58:25;;;;;;;2.17;0.80;;;18.50;57.20;;;;;;4956917;28;20023;-67
2021/12/10 12:00:51;;;;;;;1.90;0.77;;;18.50;57.20;;;;;;4961159;28;20102;-67
2021/12/10 12:03:17;;;;;;;0.85;0.50;;;18.50;57.20;;;;;;5021792;23;20084;-70
2021/12/10 12:05:43;;;;;;;1.35;0.73;;;18.50;57.30;;;;;;5015191;28;20450;-70
2021/12/10 12:08:12;;;;;;;1.48;0.90;;;18.50;57.20;;;;;;4981585;28;20479;-70
2021/12/10 12:10:44;;;;;;;2.13;0.80;;;18.50;57.20;;;;;;4997756;28;20054;-70
2021/12/10 12:13:36;;;;;;;1.52;0.77;;;18.50;57.20;;;;;;4997378;28;20018;-70
2021/12/10 12:16:04;;;;;;;1.20;0.90;;;18.50;57.10;;;;;;5014419;28;20062;-70
2021/12/10 12:18:49;;;;;;;1.58;0.60;;;18.50;57.20;;;;;;4997463;28;20498;-70
2021/12/10 12:27:10;;;;;;;1.38;0.70;;;18.50;57.10;;;;;;5015106;28;20080;-70
2021/12/10 12:29:49;;;;;;;1.98;0.70;;;18.50;58.10;;;;;;4999471;28;20028;-70
2021/12/10 12:32:18;;;;;;;1.42;0.70;;;18.50;57.00;;;;;;5014388;28;20506;-70
2021/12/10 12:34:43;;;;;;;1.38;0.65;;;18.50;57.10;;;;;;5014561;28;20076;-70
2021/12/10 12:37:10;;;;;;;2.17;1.10;;;18.50;57.10;;;;;;4996859;28;20022;-70
2021/12/10 12:39:40;;;;;;;2.08;0.73;;;18.50;57.00;;;;;;4981039;28;20571;-70
2021/12/10 12:42:16;;;;;;;1.25;0.65;;;18.50;57.00;;;;;;5014424;28;20440;-70
2021/12/10 12:44:42;;;;;;;2.55;0.88;;;18.50;56.90;;;;;;5014115;28;20239;-70
2021/12/10 12:47:16;;;;;;;1.05;0.73;;;18.50;57.00;;;;;;4980716;28;20034;-70
2021/12/10 12:49:48;;;;;;;1.95;0.60;;;18.50;57.00;;;;;;5014232;28;20034;-70
2021/12/10 12:52:19;;;;;;;2.22;0.77;;;18.50;57.00;;;;;;5019501;28;20105;-70
2021/12/10 12:55:07;;;;;;;1.20;0.55;;;18.50;56.90;;;;;;5000698;28;20395;-70
2021/12/10 12:58:20;;;;;;;1.48;0.70;;;18.50;56.80;;;;;;5033510;28;20104;-70
2021/12/10 13:00:57;;;;;;;1.10;0.80;;;18.50;56.70;;;;;;5007541;28;20509;-70
2021/12/10 13:03:44;;;;;;;1.02;0.60;;;18.50;57.00;;;;;;4996455;28;20038;-70
2021/12/10 13:06:14;;;;;;;1.23;0.60;;;18.50;56.70;;;;;;5013934;28;20014;-70
2021/12/10 13:08:42;;;;;;;1.83;0.77;;;18.50;56.90;;;;;;5012540;28;20042;-70
2021/12/10 13:11:30;;;;;;;0.70;0.40;;;18.50;56.90;;;;;;5013868;28;20014;-69
2021/12/10 13:14:19;;;;;;;2.70;0.70;;;18.50;56.70;;;;;;5012842;28;20058;-69